Airfield :
LOGIN :

Register | Disclaimer

   EN    FR    IT 

 










Legend :    VFR   Marginal VFR   IFR   Intensive IFR   Very Intensive IFR
Visi :
Ceiling :
>= 8 km
>= 3000ft
5 to 8 km
1000 to 3000 ft
1500m to 5 km
500 to 1000 ft
800 to 1500m
200 to 500 ft
< 800m
< 200 ft
Symbols :   Thunderstorms  Fog  Heavy snow  Heavy precipitations  Wind > 20 kt
SIGMETs :     Misc.  Thunderstorms  Icing  Turbulence  Mountain Waves  Volcanic Ashes







- Airport Elevation : 124 ft
- IATA code : RNS
- Download approach charts


LFRN - Rennes

CURRENT METAR :
  • 241330Z AUTO 13010KT 090V170 CAVOK 33/09 Q1016 NOSIG

EXPIRED METARs :
  • 241300Z AUTO 11010KT 080V150 CAVOK 33/10 Q1016 NOSIG
  • 241230Z AUTO 14010KT 100V190 CAVOK 33/09 Q1016 NOSIG
  • 241200Z AUTO 14009KT 080V180 CAVOK 32/11 Q1016 NOSIG
  • 241130Z AUTO 10008KT 070V140 CAVOK 31/13 Q1016 NOSIG
  • 241100Z AUTO 11007KT 080V140 CAVOK 30/12 Q1017 NOSIG

TAF TAF LFRN
Valid from the 24 at 12:00 until the 25 at 12:00 UTC


241100Z 2412/2512 13008KT CAVOK
BECMG 2415/2417 21008KT
BECMG 2419/2421 VRB05KT
BECMG 2503/2505 BKN006
PROB30
TEMPO 2503/2507 3000 BR BKN003
BECMG 2509/2510 SCT020
ATIS : +33 2 99 67 72 50
No reported NOTAMs for that airfield.



MET'MAP, your aeronautical weather chart ! - Copyright ORBIFLY December 2007 - Disclaimer

ORBIFLY MET'MAP TEAM :

Programming & Development : Alexandra Zaïnal
Concept & Development : Baudouin d'Aumeries
Co-Development & Prog : Marc-Olivier Méhu
Technical & hardware support : Manuel Goepfert

Contact : metmap@orbifly.com




SOURCES & CREDITS :

   NOAA